sensor_id;sensor_type;location;lat;lon;timestamp;temperature;humidity
61374;DHT22;47242;48.158;-1.586;2023-11-18T05:31:22;13.10;91.60
61374;DHT22;47242;48.158;-1.586;2023-11-18T05:33:47;13.10;91.60
61374;DHT22;47242;48.158;-1.586;2023-11-18T05:36:17;13.10;91.60
61374;DHT22;47242;48.158;-1.586;2023-11-18T05:38:52;13.10;91.60
61374;DHT22;47242;48.158;-1.586;2023-11-18T05:41:17;13.10;91.70
61374;DHT22;47242;48.158;-1.586;2023-11-18T05:43:53;13.10;91.60
61374;DHT22;47242;48.158;-1.586;2023-11-18T05:46:19;13.20;91.60
61374;DHT22;47242;48.158;-1.586;2023-11-18T05:48:50;13.20;91.60
61374;DHT22;47242;48.158;-1.586;2023-11-18T05:51:19;13.20;91.60
61374;DHT22;47242;48.158;-1.586;2023-11-18T05:53:46;13.20;91.60
61374;DHT22;47242;48.158;-1.586;2023-11-18T05:56:13;13.20;91.50
61374;DHT22;47242;48.158;-1.586;2023-11-18T05:58:39;13.20;91.50
61374;DHT22;47242;48.158;-1.586;2023-11-18T06:01:05;13.20;91.50
61374;DHT22;47242;48.158;-1.586;2023-11-18T06:03:33;13.20;91.40
61374;DHT22;47242;48.158;-1.586;2023-11-18T06:05:58;13.20;91.50
61374;DHT22;47242;48.158;-1.586;2023-11-18T06:08:24;13.30;91.40
61374;DHT22;47242;48.158;-1.586;2023-11-18T06:10:50;13.30;91.40
61374;DHT22;47242;48.158;-1.586;2023-11-18T06:13:22;13.20;91.50
61374;DHT22;47242;48.158;-1.586;2023-11-18T06:15:47;13.30;91.50
61374;DHT22;47242;48.158;-1.586;2023-11-18T06:18:15;13.30;91.50
61374;DHT22;47242;48.158;-1.586;2023-11-18T06:20:40;13.30;91.50
61374;DHT22;47242;48.158;-1.586;2023-11-18T06:23:06;13.30;91.60
61374;DHT22;47242;48.158;-1.586;2023-11-18T06:25:32;13.30;91.60
61374;DHT22;47242;48.158;-1.586;2023-11-18T06:28:00;13.30;91.50
61374;DHT22;47242;48.158;-1.586;2023-11-18T06:30:25;13.30;91.60
61374;DHT22;47242;48.158;-1.586;2023-11-18T06:32:57;13.30;91.70
61374;DHT22;47242;48.158;-1.586;2023-11-18T06:35:23;13.30;91.60
61374;DHT22;47242;48.158;-1.586;2023-11-18T06:37:50;13.40;91.60
61374;DHT22;47242;48.158;-1.586;2023-11-18T06:40:16;13.30;91.60
61374;DHT22;47242;48.158;-1.586;2023-11-18T06:42:44;13.40;91.70
61374;DHT22;47242;48.158;-1.586;2023-11-18T06:45:13;13.40;91.70
61374;DHT22;47242;48.158;-1.586;2023-11-18T06:47:39;13.40;91.60
61374;DHT22;47242;48.158;-1.586;2023-11-18T06:50:09;13.50;91.60
61374;DHT22;47242;48.158;-1.586;2023-11-18T06:52:37;13.50;91.70
61374;DHT22;47242;48.158;-1.586;2023-11-18T06:55:07;13.40;91.70
61374;DHT22;47242;48.158;-1.586;2023-11-18T06:57:34;13.40;91.70
61374;DHT22;47242;48.158;-1.586;2023-11-18T06:59:59;13.50;91.70
61374;DHT22;47242;48.158;-1.586;2023-11-18T07:02:25;13.50;91.70
61374;DHT22;47242;48.158;-1.586;2023-11-18T07:04:51;13.50;91.70
61374;DHT22;47242;48.158;-1.586;2023-11-18T07:07:16;13.50;91.70
61374;DHT22;47242;48.158;-1.586;2023-11-18T07:09:42;13.50;91.70
61374;DHT22;47242;48.158;-1.586;2023-11-18T07:12:10;13.50;91.70
61374;DHT22;47242;48.158;-1.586;2023-11-18T07:14:38;13.50;91.70
61374;DHT22;47242;48.158;-1.586;2023-11-18T07:17:04;13.50;91.70
61374;DHT22;47242;48.158;-1.586;2023-11-18T07:19:30;13.50;91.80
61374;DHT22;47242;48.158;-1.586;2023-11-18T07:21:58;13.40;91.90
61374;DHT22;47242;48.158;-1.586;2023-11-18T07:24:24;13.50;91.90
61374;DHT22;47242;48.158;-1.586;2023-11-18T07:26:51;13.50;92.10
61374;DHT22;47242;48.158;-1.586;2023-11-18T07:29:17;13.50;92.20
61374;DHT22;47242;48.158;-1.586;2023-11-18T07:31:42;13.50;92.20
61374;DHT22;47242;48.158;-1.586;2023-11-18T07:34:08;13.50;92.20
61374;DHT22;47242;48.158;-1.586;2023-11-18T07:36:34;13.50;92.20
61374;DHT22;47242;48.158;-1.586;2023-11-18T07:39:01;13.50;92.10
61374;DHT22;47242;48.158;-1.586;2023-11-18T07:41:28;13.60;92.20
61374;DHT22;47242;48.158;-1.586;2023-11-18T07:43:54;13.60;92.10
61374;DHT22;47242;48.158;-1.586;2023-11-18T07:46:22;13.60;92.10
61374;DHT22;47242;48.158;-1.586;2023-11-18T07:48:51;13.70;92.10
61374;DHT22;47242;48.158;-1.586;2023-11-18T07:54:24;13.70;92.00
61374;DHT22;47242;48.158;-1.586;2023-11-18T07:56:50;13.70;92.00
61374;DHT22;47242;48.158;-1.586;2023-11-18T07:59:17;13.70;92.00
61374;DHT22;47242;48.158;-1.586;2023-11-18T08:01:44;13.70;92.00
61374;DHT22;47242;48.158;-1.586;2023-11-18T08:04:13;13.70;92.00
61374;DHT22;47242;48.158;-1.586;2023-11-18T08:06:42;13.70;92.00
61374;DHT22;47242;48.158;-1.586;2023-11-18T08:09:11;13.80;92.10
61374;DHT22;47242;48.158;-1.586;2023-11-18T08:11:42;13.80;92.00
61374;DHT22;47242;48.158;-1.586;2023-11-18T08:14:08;13.80;92.00
61374;DHT22;47242;48.158;-1.586;2023-11-18T08:16:34;13.80;92.00
61374;DHT22;47242;48.158;-1.586;2023-11-18T08:19:00;13.80;92.10
61374;DHT22;47242;48.158;-1.586;2023-11-18T08:21:27;13.80;92.10
61374;DHT22;47242;48.158;-1.586;2023-11-18T08:23:54;13.80;92.10
61374;DHT22;47242;48.158;-1.586;2023-11-18T08:26:19;13.80;92.20
61374;DHT22;47242;48.158;-1.586;2023-11-18T08:28:45;13.80;92.10
61374;DHT22;47242;48.158;-1.586;2023-11-18T08:31:13;13.90;92.20
61374;DHT22;47242;48.158;-1.586;2023-11-18T08:33:41;13.90;92.20
61374;DHT22;47242;48.158;-1.586;2023-11-18T08:36:07;13.90;92.20
61374;DHT22;47242;48.158;-1.586;2023-11-18T08:38:33;13.90;92.20
61374;DHT22;47242;48.158;-1.586;2023-11-18T08:41:00;14.00;92.30
61374;DHT22;47242;48.158;-1.586;2023-11-18T08:43:26;14.00;92.20
61374;DHT22;47242;48.158;-1.586;2023-11-18T08:45:54;14.00;92.20
61374;DHT22;47242;48.158;-1.586;2023-11-18T08:48:20;14.00;92.30
61374;DHT22;47242;48.158;-1.586;2023-11-18T08:50:46;14.00;92.30
61374;DHT22;47242;48.158;-1.586;2023-11-18T08:53:12;14.10;92.30
61374;DHT22;47242;48.158;-1.586;2023-11-18T08:55:53;14.00;92.30
61374;DHT22;47242;48.158;-1.586;2023-11-18T08:58:22;14.10;92.30
61374;DHT22;47242;48.158;-1.586;2023-11-18T09:00:50;14.20;92.30
61374;DHT22;47242;48.158;-1.586;2023-11-18T09:03:23;14.20;92.30
61374;DHT22;47242;48.158;-1.586;2023-11-18T09:06:01;14.20;92.30
61374;DHT22;47242;48.158;-1.586;2023-11-18T09:08:37;14.30;92.30
61374;DHT22;47242;48.158;-1.586;2023-11-18T09:11:09;14.30;92.30
61374;DHT22;47242;48.158;-1.586;2023-11-18T09:13:47;14.30;92.40
61374;DHT22;47242;48.158;-1.586;2023-11-18T09:16:15;14.30;92.40
61374;DHT22;47242;48.158;-1.586;2023-11-18T09:18:42;14.30;92.30
61374;DHT22;47242;48.158;-1.586;2023-11-18T09:21:11;14.30;92.20
61374;DHT22;47242;48.158;-1.586;2023-11-18T09:23:48;14.40;92.30
61374;DHT22;47242;48.158;-1.586;2023-11-18T09:26:15;14.30;92.30
61374;DHT22;47242;48.158;-1.586;2023-11-18T09:28:42;14.40;92.30
61374;DHT22;47242;48.158;-1.586;2023-11-18T09:31:10;14.40;92.40
61374;DHT22;47242;48.158;-1.586;2023-11-18T09:33:40;14.50;92.50
61374;DHT22;47242;48.158;-1.586;2023-11-18T09:36:12;14.50;92.40
61374;DHT22;47242;48.158;-1.586;2023-11-18T09:38:39;14.60;92.30
61374;DHT22;47242;48.158;-1.586;2023-11-18T09:41:09;14.60;92.30
61374;DHT22;47242;48.158;-1.586;2023-11-18T09:43:45;14.60;92.30
61374;DHT22;47242;48.158;-1.586;2023-11-18T09:48:53;14.70;92.30
61374;DHT22;47242;48.158;-1.586;2023-11-18T09:51:26;14.70;92.30
61374;DHT22;47242;48.158;-1.586;2023-11-18T09:53:59;14.70;92.40
61374;DHT22;47242;48.158;-1.586;2023-11-18T09:59:43;14.70;92.40
61374;DHT22;47242;48.158;-1.586;2023-11-18T10:02:12;14.70;92.40
61374;DHT22;47242;48.158;-1.586;2023-11-18T10:04:39;14.70;92.40
61374;DHT22;47242;48.158;-1.586;2023-11-18T10:07:08;14.70;92.40
61374;DHT22;47242;48.158;-1.586;2023-11-18T10:09:36;14.70;92.40
61374;DHT22;47242;48.158;-1.586;2023-11-18T10:12:08;14.80;92.40
61374;DHT22;47242;48.158;-1.586;2023-11-18T10:14:41;14.80;92.40
61374;DHT22;47242;48.158;-1.586;2023-11-18T10:17:09;14.80;92.40
61374;DHT22;47242;48.158;-1.586;2023-11-18T10:19:58;14.80;92.40
61374;DHT22;47242;48.158;-1.586;2023-11-18T10:22:38;14.80;92.40
61374;DHT22;47242;48.158;-1.586;2023-11-18T10:25:04;14.80;92.30
61374;DHT22;47242;48.158;-1.586;2023-11-18T10:27:31;14.80;92.40
61374;DHT22;47242;48.158;-1.586;2023-11-18T10:30:05;14.80;92.40
61374;DHT22;47242;48.158;-1.586;2023-11-18T10:32:55;14.80;92.40
61374;DHT22;47242;48.158;-1.586;2023-11-18T10:35:21;14.90;92.30
61374;DHT22;47242;48.158;-1.586;2023-11-18T10:37:47;14.90;92.20
61374;DHT22;47242;48.158;-1.586;2023-11-18T10:40:14;14.90;92.30
61374;DHT22;47242;48.158;-1.586;2023-11-18T10:42:40;14.90;92.30
61374;DHT22;47242;48.158;-1.586;2023-11-18T10:45:08;14.90;92.20
61374;DHT22;47242;48.158;-1.586;2023-11-18T10:47:42;15.00;92.20
61374;DHT22;47242;48.158;-1.586;2023-11-18T10:50:08;15.00;92.20
61374;DHT22;47242;48.158;-1.586;2023-11-18T10:52:39;15.00;92.20
61374;DHT22;47242;48.158;-1.586;2023-11-18T10:55:06;15.00;92.20
61374;DHT22;47242;48.158;-1.586;2023-11-18T10:57:41;15.10;92.20
61374;DHT22;47242;48.158;-1.586;2023-11-18T11:00:08;15.20;92.10
61374;DHT22;47242;48.158;-1.586;2023-11-18T11:02:40;15.20;92.00
61374;DHT22;47242;48.158;-1.586;2023-11-18T11:05:10;15.30;92.10
61374;DHT22;47242;48.158;-1.586;2023-11-18T11:07:43;15.30;92.00
61374;DHT22;47242;48.158;-1.586;2023-11-18T11:10:12;15.30;91.90
61374;DHT22;47242;48.158;-1.586;2023-11-18T11:12:54;15.30;91.90
61374;DHT22;47242;48.158;-1.586;2023-11-18T11:15:29;15.40;91.90
61374;DHT22;47242;48.158;-1.586;2023-11-18T11:18:04;15.50;91.70
61374;DHT22;47242;48.158;-1.586;2023-11-18T11:20:37;15.50;91.60
61374;DHT22;47242;48.158;-1.586;2023-11-18T11:28:42;15.60;91.60
61374;DHT22;47242;48.158;-1.586;2023-11-18T11:31:12;15.60;91.60
61374;DHT22;47242;48.158;-1.586;2023-11-18T11:33:46;15.60;91.50
61374;DHT22;47242;48.158;-1.586;2023-11-18T11:36:20;15.70;91.50
61374;DHT22;47242;48.158;-1.586;2023-11-18T11:38:51;15.70;91.50
61374;DHT22;47242;48.158;-1.586;2023-11-18T11:41:18;15.60;91.40
61374;DHT22;47242;48.158;-1.586;2023-11-18T11:43:52;15.70;91.40
61374;DHT22;47242;48.158;-1.586;2023-11-18T11:46:22;15.60;91.30
61374;DHT22;47242;48.158;-1.586;2023-11-18T11:48:50;15.70;91.50
61374;DHT22;47242;48.158;-1.586;2023-11-18T11:51:25;15.60;91.50
61374;DHT22;47242;48.158;-1.586;2023-11-18T11:54:02;15.60;91.50
61374;DHT22;47242;48.158;-1.586;2023-11-18T11:56:43;15.60;91.50
61374;DHT22;47242;48.158;-1.586;2023-11-18T11:59:09;15.60;91.50
61374;DHT22;47242;48.158;-1.586;2023-11-18T12:01:38;15.60;91.50
61374;DHT22;47242;48.158;-1.586;2023-11-18T12:04:04;15.60;91.40
61374;DHT22;47242;48.158;-1.586;2023-11-18T12:06:42;15.60;91.50
61374;DHT22;47242;48.158;-1.586;2023-11-18T12:09:10;15.70;91.50
61374;DHT22;47242;48.158;-1.586;2023-11-18T12:11:36;15.70;91.40
61374;DHT22;47242;48.158;-1.586;2023-11-18T12:14:08;15.80;91.30
61374;DHT22;47242;48.158;-1.586;2023-11-18T12:17:06;15.80;91.20
61374;DHT22;47242;48.158;-1.586;2023-11-18T12:19:47;15.80;91.10
61374;DHT22;47242;48.158;-1.586;2023-11-18T12:22:17;15.80;91.00
61374;DHT22;47242;48.158;-1.586;2023-11-18T12:27:43;15.90;90.80
61374;DHT22;47242;48.158;-1.586;2023-11-18T12:33:01;16.00;90.70
61374;DHT22;47242;48.158;-1.586;2023-11-18T12:41:39;16.10;90.50
61374;DHT22;47242;48.158;-1.586;2023-11-18T12:49:42;16.50;89.80
61374;DHT22;47242;48.158;-1.586;2023-11-18T12:52:12;16.50;89.70
61374;DHT22;47242;48.158;-1.586;2023-11-18T12:54:40;16.70;89.30
61374;DHT22;47242;48.158;-1.586;2023-11-18T12:57:11;16.70;89.10
61374;DHT22;47242;48.158;-1.586;2023-11-18T12:59:41;16.70;88.60
61374;DHT22;47242;48.158;-1.586;2023-11-18T13:02:08;16.70;89.10
61374;DHT22;47242;48.158;-1.586;2023-11-18T13:04:39;16.70;89.00
61374;DHT22;47242;48.158;-1.586;2023-11-18T13:07:06;16.80;89.00
61374;DHT22;47242;48.158;-1.586;2023-11-18T13:09:37;16.80;89.10
61374;DHT22;47242;48.158;-1.586;2023-11-18T13:12:05;16.70;89.10
61374;DHT22;47242;48.158;-1.586;2023-11-18T13:14:32;16.70;89.00
61374;DHT22;47242;48.158;-1.586;2023-11-18T13:17:08;16.70;89.00
61374;DHT22;47242;48.158;-1.586;2023-11-18T13:19:34;16.70;89.10
61374;DHT22;47242;48.158;-1.586;2023-11-18T13:22:01;16.70;89.00
61374;DHT22;47242;48.158;-1.586;2023-11-18T13:24:34;16.70;89.10
61374;DHT22;47242;48.158;-1.586;2023-11-18T13:27:00;16.70;89.10
61374;DHT22;47242;48.158;-1.586;2023-11-18T13:29:30;16.70;89.20
61374;DHT22;47242;48.158;-1.586;2023-11-18T13:31:57;16.60;89.20
61374;DHT22;47242;48.158;-1.586;2023-11-18T13:34:26;16.60;89.20
61374;DHT22;47242;48.158;-1.586;2023-11-18T13:36:52;16.50;89.30
61374;DHT22;47242;48.158;-1.586;2023-11-18T13:39:20;16.50;89.40
61374;DHT22;47242;48.158;-1.586;2023-11-18T13:41:50;16.50;89.50
61374;DHT22;47242;48.158;-1.586;2023-11-18T13:44:35;16.50;89.50
61374;DHT22;47242;48.158;-1.586;2023-11-18T13:47:05;16.40;89.50
61374;DHT22;47242;48.158;-1.586;2023-11-18T13:49:31;16.50;89.70
61374;DHT22;47242;48.158;-1.586;2023-11-18T13:51:58;16.40;89.60
61374;DHT22;47242;48.158;-1.586;2023-11-18T13:54:24;16.50;89.70
61374;DHT22;47242;48.158;-1.586;2023-11-18T13:56:51;16.50;89.70
61374;DHT22;47242;48.158;-1.586;2023-11-18T13:59:18;16.50;89.60
61374;DHT22;47242;48.158;-1.586;2023-11-18T14:01:43;16.50;89.70
61374;DHT22;47242;48.158;-1.586;2023-11-18T14:04:10;16.50;89.80
61374;DHT22;47242;48.158;-1.586;2023-11-18T14:06:36;16.50;89.80
61374;DHT22;47242;48.158;-1.586;2023-11-18T14:09:02;16.40;89.90
61374;DHT22;47242;48.158;-1.586;2023-11-18T14:11:30;16.40;89.90
61374;DHT22;47242;48.158;-1.586;2023-11-18T14:13:56;16.40;90.00
61374;DHT22;47242;48.158;-1.586;2023-11-18T14:16:24;16.40;90.00
61374;DHT22;47242;48.158;-1.586;2023-11-18T14:18:51;16.40;90.10
61374;DHT22;47242;48.158;-1.586;2023-11-18T14:21:17;16.30;90.10
61374;DHT22;47242;48.158;-1.586;2023-11-18T14:23:43;16.40;90.20
61374;DHT22;47242;48.158;-1.586;2023-11-18T14:26:10;16.30;90.20
61374;DHT22;47242;48.158;-1.586;2023-11-18T14:28:37;16.30;90.30
61374;DHT22;47242;48.158;-1.586;2023-11-18T14:31:03;16.30;90.50
61374;DHT22;47242;48.158;-1.586;2023-11-18T14:33:30;16.30;90.50
61374;DHT22;47242;48.158;-1.586;2023-11-18T14:35:59;16.30;90.60
61374;DHT22;47242;48.158;-1.586;2023-11-18T14:38:26;16.30;90.70
61374;DHT22;47242;48.158;-1.586;2023-11-18T14:40:52;16.30;90.70
61374;DHT22;47242;48.158;-1.586;2023-11-18T14:43:19;16.30;90.70
61374;DHT22;47242;48.158;-1.586;2023-11-18T14:45:45;16.30;90.80
61374;DHT22;47242;48.158;-1.586;2023-11-18T14:48:11;16.30;90.80
61374;DHT22;47242;48.158;-1.586;2023-11-18T14:50:38;16.30;90.80
61374;DHT22;47242;48.158;-1.586;2023-11-18T14:53:03;16.30;90.90
61374;DHT22;47242;48.158;-1.586;2023-11-18T14:55:31;16.30;91.00
61374;DHT22;47242;48.158;-1.586;2023-11-18T14:57:58;16.30;91.00
61374;DHT22;47242;48.158;-1.586;2023-11-18T15:00:24;16.30;91.10
61374;DHT22;47242;48.158;-1.586;2023-11-18T15:02:54;16.30;91.00
61374;DHT22;47242;48.158;-1.586;2023-11-18T15:05:25;16.30;91.00
61374;DHT22;47242;48.158;-1.586;2023-11-18T15:07:53;16.30;91.00
61374;DHT22;47242;48.158;-1.586;2023-11-18T15:10:24;16.30;91.00
61374;DHT22;47242;48.158;-1.586;2023-11-18T15:12:51;16.30;91.10
61374;DHT22;47242;48.158;-1.586;2023-11-18T15:18:00;16.30;91.00
61374;DHT22;47242;48.158;-1.586;2023-11-18T15:20:30;16.30;91.10
61374;DHT22;47242;48.158;-1.586;2023-11-18T15:22:56;16.30;91.10
61374;DHT22;47242;48.158;-1.586;2023-11-18T15:25:22;16.30;91.10
61374;DHT22;47242;48.158;-1.586;2023-11-18T15:27:48;16.30;91.10
61374;DHT22;47242;48.158;-1.586;2023-11-18T15:30:15;16.30;91.20
61374;DHT22;47242;48.158;-1.586;2023-11-18T15:32:43;16.30;91.20
61374;DHT22;47242;48.158;-1.586;2023-11-18T15:35:10;16.30;91.20
61374;DHT22;47242;48.158;-1.586;2023-11-18T15:37:40;16.30;91.10
61374;DHT22;47242;48.158;-1.586;2023-11-18T15:40:07;16.30;91.10
61374;DHT22;47242;48.158;-1.586;2023-11-18T15:42:39;16.30;91.20
61374;DHT22;47242;48.158;-1.586;2023-11-18T15:45:16;16.30;91.10
61374;DHT22;47242;48.158;-1.586;2023-11-18T15:47:43;16.30;91.00
61374;DHT22;47242;48.158;-1.586;2023-11-18T15:50:10;16.30;91.00
61374;DHT22;47242;48.158;-1.586;2023-11-18T15:52:45;16.30;90.90
61374;DHT22;47242;48.158;-1.586;2023-11-18T15:55:13;16.30;91.00
61374;DHT22;47242;48.158;-1.586;2023-11-18T15:58:03;16.30;90.90
61374;DHT22;47242;48.158;-1.586;2023-11-18T16:00:29;16.30;91.00
61374;DHT22;47242;48.158;-1.586;2023-11-18T16:02:56;16.30;91.00
61374;DHT22;47242;48.158;-1.586;2023-11-18T16:05:24;16.30;90.90
61374;DHT22;47242;48.158;-1.586;2023-11-18T16:07:54;16.30;91.00
61374;DHT22;47242;48.158;-1.586;2023-11-18T16:10:21;16.30;91.00
61374;DHT22;47242;48.158;-1.586;2023-11-18T16:12:48;16.30;91.00
61374;DHT22;47242;48.158;-1.586;2023-11-18T16:15:16;16.30;91.00
61374;DHT22;47242;48.158;-1.586;2023-11-18T16:17:45;16.30;91.00
61374;DHT22;47242;48.158;-1.586;2023-11-18T16:20:12;16.30;90.90
61374;DHT22;47242;48.158;-1.586;2023-11-18T16:22:44;16.30;91.00
61374;DHT22;47242;48.158;-1.586;2023-11-18T16:25:20;16.30;91.10
61374;DHT22;47242;48.158;-1.586;2023-11-18T16:27:47;16.30;91.10
61374;DHT22;47242;48.158;-1.586;2023-11-18T16:30:14;16.30;91.10
61374;DHT22;47242;48.158;-1.586;2023-11-18T16:32:40;16.30;91.10
61374;DHT22;47242;48.158;-1.586;2023-11-18T16:35:09;16.30;91.20
61374;DHT22;47242;48.158;-1.586;2023-11-18T16:37:38;16.30;91.20
61374;DHT22;47242;48.158;-1.586;2023-11-18T16:40:05;16.30;91.20
61374;DHT22;47242;48.158;-1.586;2023-11-18T16:42:31;16.30;91.30
61374;DHT22;47242;48.158;-1.586;2023-11-18T16:44:57;16.20;91.20
61374;DHT22;47242;48.158;-1.586;2023-11-18T16:47:25;16.30;91.20
61374;DHT22;47242;48.158;-1.586;2023-11-18T16:49:51;16.20;91.20
61374;DHT22;47242;48.158;-1.586;2023-11-18T16:52:17;16.20;91.30
61374;DHT22;47242;48.158;-1.586;2023-11-18T16:54:43;16.20;91.30
61374;DHT22;47242;48.158;-1.586;2023-11-18T16:57:09;16.20;91.30
61374;DHT22;47242;48.158;-1.586;2023-11-18T16:59:34;16.20;91.20
61374;DHT22;47242;48.158;-1.586;2023-11-18T17:02:00;16.20;91.30
61374;DHT22;47242;48.158;-1.586;2023-11-18T17:04:29;16.20;91.30
61374;DHT22;47242;48.158;-1.586;2023-11-18T17:06:55;16.20;91.20
61374;DHT22;47242;48.158;-1.586;2023-11-18T17:09:21;16.20;91.20
61374;DHT22;47242;48.158;-1.586;2023-11-18T17:11:47;16.20;91.20
61374;DHT22;47242;48.158;-1.586;2023-11-18T17:14:13;16.20;91.20
61374;DHT22;47242;48.158;-1.586;2023-11-18T17:16:40;16.20;91.30
61374;DHT22;47242;48.158;-1.586;2023-11-18T17:19:08;16.20;91.20
61374;DHT22;47242;48.158;-1.586;2023-11-18T17:21:34;16.20;91.20
61374;DHT22;47242;48.158;-1.586;2023-11-18T17:24:00;16.20;91.20
61374;DHT22;47242;48.158;-1.586;2023-11-18T17:26:26;16.20;91.20
61374;DHT22;47242;48.158;-1.586;2023-11-18T17:28:52;16.20;91.20
61374;DHT22;47242;48.158;-1.586;2023-11-18T17:31:18;16.20;91.20
61374;DHT22;47242;48.158;-1.586;2023-11-18T17:33:44;16.20;91.30
61374;DHT22;47242;48.158;-1.586;2023-11-18T17:36:12;16.30;91.30
61374;DHT22;47242;48.158;-1.586;2023-11-18T17:38:38;16.20;91.20
61374;DHT22;47242;48.158;-1.586;2023-11-18T17:41:03;16.20;91.30
61374;DHT22;47242;48.158;-1.586;2023-11-18T17:43:29;16.20;91.40
61374;DHT22;47242;48.158;-1.586;2023-11-18T17:45:55;16.20;91.30
61374;DHT22;47242;48.158;-1.586;2023-11-18T17:48:20;16.20;91.40
61374;DHT22;47242;48.158;-1.586;2023-11-18T17:50:46;16.20;91.40
61374;DHT22;47242;48.158;-1.586;2023-11-18T17:53:12;16.20;91.40
61374;DHT22;47242;48.158;-1.586;2023-11-18T17:55:38;16.20;91.30
61374;DHT22;47242;48.158;-1.586;2023-11-18T17:58:03;16.20;91.30
61374;DHT22;47242;48.158;-1.586;2023-11-18T18:00:29;16.20;91.30
61374;DHT22;47242;48.158;-1.586;2023-11-18T18:02:55;16.20;91.40
61374;DHT22;47242;48.158;-1.586;2023-11-18T18:05:21;16.20;91.30
61374;DHT22;47242;48.158;-1.586;2023-11-18T18:07:50;16.20;91.40
61374;DHT22;47242;48.158;-1.586;2023-11-18T18:10:15;16.20;91.30
61374;DHT22;47242;48.158;-1.586;2023-11-18T18:12:41;16.20;91.30
61374;DHT22;47242;48.158;-1.586;2023-11-18T18:15:07;16.20;91.40
61374;DHT22;47242;48.158;-1.586;2023-11-18T18:17:37;16.20;91.30
61374;DHT22;47242;48.158;-1.586;2023-11-18T18:20:03;16.30;91.30
61374;DHT22;47242;48.158;-1.586;2023-11-18T18:22:34;16.30;91.30
61374;DHT22;47242;48.158;-1.586;2023-11-18T18:25:00;16.30;91.20
61374;DHT22;47242;48.158;-1.586;2023-11-18T18:27:26;16.30;91.20
61374;DHT22;47242;48.158;-1.586;2023-11-18T18:29:51;16.30;91.30
61374;DHT22;47242;48.158;-1.586;2023-11-18T18:32:17;16.20;91.20
61374;DHT22;47242;48.158;-1.586;2023-11-18T18:34:42;16.20;91.20
61374;DHT22;47242;48.158;-1.586;2023-11-18T18:37:08;16.20;91.20
61374;DHT22;47242;48.158;-1.586;2023-11-18T18:39:33;16.20;91.20
61374;DHT22;47242;48.158;-1.586;2023-11-18T18:41:59;16.20;91.20
61374;DHT22;47242;48.158;-1.586;2023-11-18T18:44:25;16.20;91.20
61374;DHT22;47242;48.158;-1.586;2023-11-18T18:46:52;16.20;91.20
61374;DHT22;47242;48.158;-1.586;2023-11-18T18:49:17;16.20;91.20
61374;DHT22;47242;48.158;-1.586;2023-11-18T18:51:43;16.10;91.20
61374;DHT22;47242;48.158;-1.586;2023-11-18T18:54:09;16.10;91.10
61374;DHT22;47242;48.158;-1.586;2023-11-18T18:56:36;16.10;91.20
61374;DHT22;47242;48.158;-1.586;2023-11-18T18:59:03;16.10;91.20
61374;DHT22;47242;48.158;-1.586;2023-11-18T19:01:29;16.10;91.10
61374;DHT22;47242;48.158;-1.586;2023-11-18T19:03:55;16.10;91.20
61374;DHT22;47242;48.158;-1.586;2023-11-18T19:06:21;16.10;91.10
61374;DHT22;47242;48.158;-1.586;2023-11-18T19:08:47;16.10;91.20
61374;DHT22;47242;48.158;-1.586;2023-11-18T19:11:12;16.20;91.20
61374;DHT22;47242;48.158;-1.586;2023-11-18T19:13:38;16.10;91.00
61374;DHT22;47242;48.158;-1.586;2023-11-18T19:16:04;16.10;91.10
61374;DHT22;47242;48.158;-1.586;2023-11-18T19:18:29;16.20;91.20
61374;DHT22;47242;48.158;-1.586;2023-11-18T19:20:55;16.20;91.10
61374;DHT22;47242;48.158;-1.586;2023-11-18T19:23:21;16.10;91.10
61374;DHT22;47242;48.158;-1.586;2023-11-18T19:25:47;16.10;91.10
61374;DHT22;47242;48.158;-1.586;2023-11-18T19:28:13;16.10;91.00
61374;DHT22;47242;48.158;-1.586;2023-11-18T19:30:39;16.10;91.20
61374;DHT22;47242;48.158;-1.586;2023-11-18T19:33:05;16.20;91.10
61374;DHT22;47242;48.158;-1.586;2023-11-18T19:35:30;16.10;91.00
61374;DHT22;47242;48.158;-1.586;2023-11-18T19:37:59;16.10;91.00
61374;DHT22;47242;48.158;-1.586;2023-11-18T19:40:34;16.10;90.90
61374;DHT22;47242;48.158;-1.586;2023-11-18T19:43:00;16.10;91.00
61374;DHT22;47242;48.158;-1.586;2023-11-18T19:45:26;16.00;91.00
61374;DHT22;47242;48.158;-1.586;2023-11-18T19:47:51;16.10;90.90
61374;DHT22;47242;48.158;-1.586;2023-11-18T19:50:17;16.10;91.00
61374;DHT22;47242;48.158;-1.586;2023-11-18T19:52:43;16.10;91.00
61374;DHT22;47242;48.158;-1.586;2023-11-18T19:55:09;16.00;91.00
61374;DHT22;47242;48.158;-1.586;2023-11-18T19:57:35;16.00;90.90
61374;DHT22;47242;48.158;-1.586;2023-11-18T20:00:01;16.00;91.00
61374;DHT22;47242;48.158;-1.586;2023-11-18T20:02:30;15.90;91.00
61374;DHT22;47242;48.158;-1.586;2023-11-18T20:04:56;15.90;91.20
61374;DHT22;47242;48.158;-1.586;2023-11-18T20:07:23;15.90;91.10
61374;DHT22;47242;48.158;-1.586;2023-11-18T20:09:49;15.90;91.10
61374;DHT22;47242;48.158;-1.586;2023-11-18T20:12:15;16.00;91.20
61374;DHT22;47242;48.158;-1.586;2023-11-18T20:14:41;16.00;91.20
61374;DHT22;47242;48.158;-1.586;2023-11-18T20:17:07;16.00;91.20
61374;DHT22;47242;48.158;-1.586;2023-11-18T20:19:33;16.00;91.00
61374;DHT22;47242;48.158;-1.586;2023-11-18T20:22:01;16.00;91.00
61374;DHT22;47242;48.158;-1.586;2023-11-18T20:24:27;16.00;91.00
61374;DHT22;47242;48.158;-1.586;2023-11-18T20:26:54;16.10;90.80
61374;DHT22;47242;48.158;-1.586;2023-11-18T20:29:20;16.10;91.00
61374;DHT22;47242;48.158;-1.586;2023-11-18T20:31:45;16.00;90.80
61374;DHT22;47242;48.158;-1.586;2023-11-18T20:34:11;16.10;90.80
61374;DHT22;47242;48.158;-1.586;2023-11-18T20:36:46;16.10;90.60
61374;DHT22;47242;48.158;-1.586;2023-11-18T20:39:12;16.10;90.70
61374;DHT22;47242;48.158;-1.586;2023-11-18T20:41:46;16.10;90.70
61374;DHT22;47242;48.158;-1.586;2023-11-18T20:44:13;16.20;90.70
61374;DHT22;47242;48.158;-1.586;2023-11-18T20:46:39;16.10;90.60
61374;DHT22;47242;48.158;-1.586;2023-11-18T20:49:05;16.10;90.70
61374;DHT22;47242;48.158;-1.586;2023-11-18T20:51:31;16.10;90.60
61374;DHT22;47242;48.158;-1.586;2023-11-18T20:53:57;16.20;90.70
61374;DHT22;47242;48.158;-1.586;2023-11-18T20:56:23;16.20;90.50
61374;DHT22;47242;48.158;-1.586;2023-11-18T20:58:50;16.10;90.60
61374;DHT22;47242;48.158;-1.586;2023-11-18T21:01:16;16.10;90.60
61374;DHT22;47242;48.158;-1.586;2023-11-18T21:03:43;16.10;90.50
61374;DHT22;47242;48.158;-1.586;2023-11-18T21:06:09;16.10;90.50
61374;DHT22;47242;48.158;-1.586;2023-11-18T21:08:35;16.00;90.50
61374;DHT22;47242;48.158;-1.586;2023-11-18T21:11:01;16.00;90.50
61374;DHT22;47242;48.158;-1.586;2023-11-18T21:13:29;16.00;90.50
61374;DHT22;47242;48.158;-1.586;2023-11-18T21:15:56;16.00;90.40
61374;DHT22;47242;48.158;-1.586;2023-11-18T21:18:22;16.00;90.30
61374;DHT22;47242;48.158;-1.586;2023-11-18T21:20:47;15.90;90.40
61374;DHT22;47242;48.158;-1.586;2023-11-18T21:23:13;16.00;90.40
61374;DHT22;47242;48.158;-1.586;2023-11-18T21:25:40;16.00;90.40